sensor_id;sensor_type;location;lat;lon;timestamp;P1;durP1;ratioP1;P2;durP2;ratioP2
64678;SDS011;51094;53.864;27.676;2022-07-18T00:02:01;2.20;;;2.20;;
64678;SDS011;51094;53.864;27.676;2022-07-18T00:04:29;2.20;;;2.20;;
64678;SDS011;51094;53.864;27.676;2022-07-18T00:06:57;2.63;;;2.53;;
64678;SDS011;51094;53.864;27.676;2022-07-18T00:09:24;3.47;;;3.38;;
64678;SDS011;51094;53.864;27.676;2022-07-18T00:11:51;3.95;;;3.85;;
64678;SDS011;51094;53.864;27.676;2022-07-18T00:14:20;4.57;;;4.38;;
64678;SDS011;51094;53.864;27.676;2022-07-18T00:16:48;3.40;;;3.30;;
64678;SDS011;51094;53.864;27.676;2022-07-18T00:19:16;3.50;;;3.40;;
64678;SDS011;51094;53.864;27.676;2022-07-18T00:21:43;4.00;;;3.80;;
64678;SDS011;51094;53.864;27.676;2022-07-18T00:24:10;3.65;;;3.55;;
64678;SDS011;51094;53.864;27.676;2022-07-18T00:26:37;3.47;;;3.38;;
64678;SDS011;51094;53.864;27.676;2022-07-18T00:29:04;3.78;;;3.67;;
64678;SDS011;51094;53.864;27.676;2022-07-18T00:31:31;2.88;;;2.78;;
64678;SDS011;51094;53.864;27.676;2022-07-18T00:33:59;3.35;;;3.25;;
64678;SDS011;51094;53.864;27.676;2022-07-18T00:36:25;3.05;;;2.95;;
64678;SDS011;51094;53.864;27.676;2022-07-18T00:38:53;2.85;;;2.75;;
64678;SDS011;51094;53.864;27.676;2022-07-18T00:41:19;2.10;;;2.10;;
64678;SDS011;51094;53.864;27.676;2022-07-18T00:43:47;1.38;;;1.38;;
64678;SDS011;51094;53.864;27.676;2022-07-18T00:46:14;1.02;;;1.02;;
64678;SDS011;51094;53.864;27.676;2022-07-18T00:48:41;1.30;;;1.30;;
64678;SDS011;51094;53.864;27.676;2022-07-18T00:51:09;1.10;;;1.10;;
64678;SDS011;51094;53.864;27.676;2022-07-18T00:53:36;1.00;;;1.00;;
64678;SDS011;51094;53.864;27.676;2022-07-18T00:56:03;1.05;;;1.05;;
64678;SDS011;51094;53.864;27.676;2022-07-18T00:58:31;1.35;;;1.35;;
64678;SDS011;51094;53.864;27.676;2022-07-18T01:00:58;1.48;;;1.48;;
64678;SDS011;51094;53.864;27.676;2022-07-18T01:03:44;1.80;;;1.80;;
64678;SDS011;51094;53.864;27.676;2022-07-18T01:06:11;1.60;;;1.60;;
64678;SDS011;51094;53.864;27.676;2022-07-18T01:08:37;1.60;;;1.60;;
64678;SDS011;51094;53.864;27.676;2022-07-18T01:11:07;1.45;;;1.45;;
64678;SDS011;51094;53.864;27.676;2022-07-18T01:13:35;1.67;;;1.67;;
64678;SDS011;51094;53.864;27.676;2022-07-18T01:16:02;1.20;;;1.20;;
64678;SDS011;51094;53.864;27.676;2022-07-18T01:18:30;1.35;;;1.35;;
64678;SDS011;51094;53.864;27.676;2022-07-18T01:20:59;0.65;;;0.65;;
64678;SDS011;51094;53.864;27.676;2022-07-18T01:23:26;0.70;;;0.70;;
64678;SDS011;51094;53.864;27.676;2022-07-18T01:25:54;0.40;;;0.40;;
64678;SDS011;51094;53.864;27.676;2022-07-18T01:28:21;0.40;;;0.40;;
64678;SDS011;51094;53.864;27.676;2022-07-18T01:30:48;0.30;;;0.30;;
64678;SDS011;51094;53.864;27.676;2022-07-18T01:33:14;0.30;;;0.30;;
64678;SDS011;51094;53.864;27.676;2022-07-18T01:35:41;0.30;;;0.30;;
64678;SDS011;51094;53.864;27.676;2022-07-18T01:38:08;0.40;;;0.40;;
64678;SDS011;51094;53.864;27.676;2022-07-18T01:40:34;0.40;;;0.40;;
64678;SDS011;51094;53.864;27.676;2022-07-18T01:43:01;0.40;;;0.40;;
64678;SDS011;51094;53.864;27.676;2022-07-18T01:45:28;0.77;;;0.77;;
64678;SDS011;51094;53.864;27.676;2022-07-18T01:47:54;0.80;;;0.80;;
64678;SDS011;51094;53.864;27.676;2022-07-18T01:50:21;1.67;;;1.67;;
64678;SDS011;51094;53.864;27.676;2022-07-18T01:52:47;1.85;;;1.85;;
64678;SDS011;51094;53.864;27.676;2022-07-18T01:55:14;1.67;;;1.67;;
64678;SDS011;51094;53.864;27.676;2022-07-18T01:57:41;1.40;;;1.40;;
64678;SDS011;51094;53.864;27.676;2022-07-18T02:00:08;1.60;;;1.60;;
64678;SDS011;51094;53.864;27.676;2022-07-18T02:02:36;1.08;;;1.08;;
64678;SDS011;51094;53.864;27.676;2022-07-18T02:05:04;1.40;;;1.40;;
64678;SDS011;51094;53.864;27.676;2022-07-18T02:07:36;1.00;;;1.00;;
64678;SDS011;51094;53.864;27.676;2022-07-18T02:10:05;1.10;;;1.10;;
64678;SDS011;51094;53.864;27.676;2022-07-18T02:12:43;1.27;;;1.27;;
64678;SDS011;51094;53.864;27.676;2022-07-18T02:15:11;2.00;;;2.00;;
64678;SDS011;51094;53.864;27.676;2022-07-18T02:17:39;1.77;;;1.77;;
64678;SDS011;51094;53.864;27.676;2022-07-18T02:20:07;1.60;;;1.60;;
64678;SDS011;51094;53.864;27.676;2022-07-18T02:22:36;1.83;;;1.83;;
64678;SDS011;51094;53.864;27.676;2022-07-18T02:25:03;1.70;;;1.70;;
64678;SDS011;51094;53.864;27.676;2022-07-18T02:27:31;1.40;;;1.40;;
64678;SDS011;51094;53.864;27.676;2022-07-18T02:29:57;2.05;;;2.05;;
64678;SDS011;51094;53.864;27.676;2022-07-18T02:32:24;2.00;;;2.00;;
64678;SDS011;51094;53.864;27.676;2022-07-18T02:34:51;2.28;;;2.20;;
64678;SDS011;51094;53.864;27.676;2022-07-18T02:37:18;1.77;;;1.77;;
64678;SDS011;51094;53.864;27.676;2022-07-18T02:39:45;1.65;;;1.65;;
64678;SDS011;51094;53.864;27.676;2022-07-18T02:42:11;1.48;;;1.48;;
64678;SDS011;51094;53.864;27.676;2022-07-18T02:44:38;1.00;;;1.00;;
64678;SDS011;51094;53.864;27.676;2022-07-18T02:47:05;0.90;;;0.90;;
64678;SDS011;51094;53.864;27.676;2022-07-18T02:49:31;1.05;;;1.05;;
64678;SDS011;51094;53.864;27.676;2022-07-18T02:52:05;0.70;;;0.70;;
64678;SDS011;51094;53.864;27.676;2022-07-18T02:54:35;0.60;;;0.60;;
64678;SDS011;51094;53.864;27.676;2022-07-18T02:57:03;0.60;;;0.60;;
64678;SDS011;51094;53.864;27.676;2022-07-18T02:59:30;0.50;;;0.50;;
64678;SDS011;51094;53.864;27.676;2022-07-18T03:01:57;0.60;;;0.60;;
64678;SDS011;51094;53.864;27.676;2022-07-18T03:04:24;0.40;;;0.40;;
64678;SDS011;51094;53.864;27.676;2022-07-18T03:06:51;0.40;;;0.40;;
64678;SDS011;51094;53.864;27.676;2022-07-18T03:09:18;0.40;;;0.40;;
64678;SDS011;51094;53.864;27.676;2022-07-18T03:11:45;0.50;;;0.50;;
64678;SDS011;51094;53.864;27.676;2022-07-18T03:14:12;0.40;;;0.40;;
64678;SDS011;51094;53.864;27.676;2022-07-18T03:16:39;0.40;;;0.40;;
64678;SDS011;51094;53.864;27.676;2022-07-18T03:19:06;0.30;;;0.30;;
64678;SDS011;51094;53.864;27.676;2022-07-18T03:21:33;0.40;;;0.40;;
64678;SDS011;51094;53.864;27.676;2022-07-18T03:24:00;0.50;;;0.50;;
64678;SDS011;51094;53.864;27.676;2022-07-18T03:26:26;0.40;;;0.40;;
64678;SDS011;51094;53.864;27.676;2022-07-18T03:28:53;0.40;;;0.40;;
64678;SDS011;51094;53.864;27.676;2022-07-18T03:31:20;0.45;;;0.45;;
64678;SDS011;51094;53.864;27.676;2022-07-18T03:33:47;0.40;;;0.40;;
64678;SDS011;51094;53.864;27.676;2022-07-18T03:36:13;0.52;;;0.52;;
64678;SDS011;51094;53.864;27.676;2022-07-18T03:38:40;0.30;;;0.30;;
64678;SDS011;51094;53.864;27.676;2022-07-18T03:41:10;0.40;;;0.40;;
64678;SDS011;51094;53.864;27.676;2022-07-18T03:43:38;0.38;;;0.38;;
64678;SDS011;51094;53.864;27.676;2022-07-18T03:46:05;0.40;;;0.40;;
64678;SDS011;51094;53.864;27.676;2022-07-18T03:48:34;0.50;;;0.50;;
64678;SDS011;51094;53.864;27.676;2022-07-18T03:51:01;0.45;;;0.45;;
64678;SDS011;51094;53.864;27.676;2022-07-18T03:53:29;0.50;;;0.50;;
64678;SDS011;51094;53.864;27.676;2022-07-18T03:55:57;0.40;;;0.40;;
64678;SDS011;51094;53.864;27.676;2022-07-18T03:58:24;0.40;;;0.40;;
64678;SDS011;51094;53.864;27.676;2022-07-18T04:00:51;0.50;;;0.50;;
64678;SDS011;51094;53.864;27.676;2022-07-18T04:03:18;0.30;;;0.30;;
64678;SDS011;51094;53.864;27.676;2022-07-18T04:05:46;0.60;;;0.60;;
64678;SDS011;51094;53.864;27.676;2022-07-18T04:08:13;0.40;;;0.40;;
64678;SDS011;51094;53.864;27.676;2022-07-18T04:10:40;0.30;;;0.30;;
64678;SDS011;51094;53.864;27.676;2022-07-18T04:13:07;0.30;;;0.30;;
64678;SDS011;51094;53.864;27.676;2022-07-18T04:15:34;0.40;;;0.40;;
64678;SDS011;51094;53.864;27.676;2022-07-18T04:18:01;0.60;;;0.60;;
64678;SDS011;51094;53.864;27.676;2022-07-18T04:20:27;0.50;;;0.50;;
64678;SDS011;51094;53.864;27.676;2022-07-18T04:22:55;0.50;;;0.50;;
64678;SDS011;51094;53.864;27.676;2022-07-18T04:25:24;0.50;;;0.50;;
64678;SDS011;51094;53.864;27.676;2022-07-18T04:27:53;0.40;;;0.40;;
64678;SDS011;51094;53.864;27.676;2022-07-18T04:30:22;0.60;;;0.60;;
64678;SDS011;51094;53.864;27.676;2022-07-18T04:32:50;2.88;;;2.88;;
64678;SDS011;51094;53.864;27.676;2022-07-18T04:35:19;0.90;;;0.90;;
64678;SDS011;51094;53.864;27.676;2022-07-18T04:37:46;0.50;;;0.50;;
64678;SDS011;51094;53.864;27.676;2022-07-18T04:40:13;0.75;;;0.75;;
64678;SDS011;51094;53.864;27.676;2022-07-18T04:42:42;0.80;;;0.80;;
64678;SDS011;51094;53.864;27.676;2022-07-18T04:45:09;0.93;;;0.93;;
64678;SDS011;51094;53.864;27.676;2022-07-18T04:47:36;1.08;;;1.08;;
64678;SDS011;51094;53.864;27.676;2022-07-18T04:50:03;1.10;;;1.10;;
64678;SDS011;51094;53.864;27.676;2022-07-18T04:52:40;2.45;;;2.45;;
64678;SDS011;51094;53.864;27.676;2022-07-18T04:55:08;1.70;;;1.70;;
64678;SDS011;51094;53.864;27.676;2022-07-18T04:57:36;1.00;;;1.00;;
64678;SDS011;51094;53.864;27.676;2022-07-18T05:00:05;1.00;;;1.00;;
64678;SDS011;51094;53.864;27.676;2022-07-18T05:02:41;0.65;;;0.65;;
64678;SDS011;51094;53.864;27.676;2022-07-18T05:05:09;0.50;;;0.50;;
64678;SDS011;51094;53.864;27.676;2022-07-18T05:07:38;0.50;;;0.50;;
64678;SDS011;51094;53.864;27.676;2022-07-18T05:10:06;1.30;;;1.30;;
64678;SDS011;51094;53.864;27.676;2022-07-18T05:12:35;1.10;;;1.10;;
64678;SDS011;51094;53.864;27.676;2022-07-18T05:15:04;0.73;;;0.73;;
64678;SDS011;51094;53.864;27.676;2022-07-18T05:17:32;0.68;;;0.68;;
64678;SDS011;51094;53.864;27.676;2022-07-18T05:19:59;0.32;;;0.32;;
64678;SDS011;51094;53.864;27.676;2022-07-18T05:22:25;0.40;;;0.40;;
64678;SDS011;51094;53.864;27.676;2022-07-18T05:24:52;0.30;;;0.30;;
64678;SDS011;51094;53.864;27.676;2022-07-18T05:27:19;0.40;;;0.40;;
64678;SDS011;51094;53.864;27.676;2022-07-18T05:29:45;0.30;;;0.30;;
64678;SDS011;51094;53.864;27.676;2022-07-18T05:32:12;0.30;;;0.30;;
64678;SDS011;51094;53.864;27.676;2022-07-18T05:34:45;0.30;;;0.30;;
64678;SDS011;51094;53.864;27.676;2022-07-18T05:37:11;0.47;;;0.47;;
64678;SDS011;51094;53.864;27.676;2022-07-18T05:39:38;0.45;;;0.40;;
64678;SDS011;51094;53.864;27.676;2022-07-18T05:42:04;0.30;;;0.30;;
64678;SDS011;51094;53.864;27.676;2022-07-18T05:44:31;0.30;;;0.30;;
64678;SDS011;51094;53.864;27.676;2022-07-18T05:46:58;0.40;;;0.40;;
64678;SDS011;51094;53.864;27.676;2022-07-18T05:49:25;0.40;;;0.40;;
64678;SDS011;51094;53.864;27.676;2022-07-18T05:51:51;0.40;;;0.40;;
64678;SDS011;51094;53.864;27.676;2022-07-18T05:54:18;0.55;;;0.55;;
64678;SDS011;51094;53.864;27.676;2022-07-18T05:56:48;0.70;;;0.70;;
64678;SDS011;51094;53.864;27.676;2022-07-18T05:59:17;1.30;;;1.30;;
64678;SDS011;51094;53.864;27.676;2022-07-18T06:01:45;0.80;;;0.80;;
64678;SDS011;51094;53.864;27.676;2022-07-18T06:04:12;1.00;;;1.00;;
64678;SDS011;51094;53.864;27.676;2022-07-18T06:06:39;1.00;;;1.00;;
64678;SDS011;51094;53.864;27.676;2022-07-18T06:09:06;1.10;;;1.10;;
64678;SDS011;51094;53.864;27.676;2022-07-18T06:11:34;1.90;;;1.90;;
64678;SDS011;51094;53.864;27.676;2022-07-18T06:14:01;1.67;;;1.67;;
64678;SDS011;51094;53.864;27.676;2022-07-18T06:16:29;1.30;;;1.30;;
64678;SDS011;51094;53.864;27.676;2022-07-18T06:18:57;1.40;;;1.40;;
64678;SDS011;51094;53.864;27.676;2022-07-18T06:21:24;1.10;;;1.10;;
64678;SDS011;51094;53.864;27.676;2022-07-18T06:23:52;0.90;;;0.90;;
64678;SDS011;51094;53.864;27.676;2022-07-18T06:26:18;1.10;;;1.10;;
64678;SDS011;51094;53.864;27.676;2022-07-18T06:28:45;1.20;;;1.20;;
64678;SDS011;51094;53.864;27.676;2022-07-18T06:31:13;1.10;;;1.10;;
64678;SDS011;51094;53.864;27.676;2022-07-18T06:36:09;1.00;;;1.00;;
64678;SDS011;51094;53.864;27.676;2022-07-18T06:38:39;1.30;;;1.30;;
64678;SDS011;51094;53.864;27.676;2022-07-18T06:41:06;1.50;;;1.50;;
64678;SDS011;51094;53.864;27.676;2022-07-18T06:43:33;1.60;;;1.60;;
64678;SDS011;51094;53.864;27.676;2022-07-18T06:46:00;1.40;;;1.40;;
64678;SDS011;51094;53.864;27.676;2022-07-18T06:48:26;1.60;;;1.60;;
64678;SDS011;51094;53.864;27.676;2022-07-18T06:50:59;0.40;;;0.40;;
64678;SDS011;51094;53.864;27.676;2022-07-18T06:53:30;0.50;;;0.50;;
64678;SDS011;51094;53.864;27.676;2022-07-18T06:55:58;0.60;;;0.60;;
64678;SDS011;51094;53.864;27.676;2022-07-18T06:58:25;0.40;;;0.40;;
64678;SDS011;51094;53.864;27.676;2022-07-18T07:00:51;0.30;;;0.30;;
64678;SDS011;51094;53.864;27.676;2022-07-18T07:03:18;0.20;;;0.20;;
64678;SDS011;51094;53.864;27.676;2022-07-18T07:05:45;0.30;;;0.30;;
64678;SDS011;51094;53.864;27.676;2022-07-18T07:08:12;0.20;;;0.20;;
64678;SDS011;51094;53.864;27.676;2022-07-18T07:10:39;0.20;;;0.20;;
64678;SDS011;51094;53.864;27.676;2022-07-18T07:13:07;0.30;;;0.30;;
64678;SDS011;51094;53.864;27.676;2022-07-18T07:15:37;0.30;;;0.30;;
64678;SDS011;51094;53.864;27.676;2022-07-18T07:18:03;0.30;;;0.30;;
64678;SDS011;51094;53.864;27.676;2022-07-18T07:20:30;0.30;;;0.30;;
64678;SDS011;51094;53.864;27.676;2022-07-18T07:22:57;0.20;;;0.20;;
64678;SDS011;51094;53.864;27.676;2022-07-18T07:25:24;0.30;;;0.30;;
64678;SDS011;51094;53.864;27.676;2022-07-18T07:27:52;0.20;;;0.20;;
64678;SDS011;51094;53.864;27.676;2022-07-18T07:30:20;0.30;;;0.30;;
64678;SDS011;51094;53.864;27.676;2022-07-18T07:32:47;0.30;;;0.30;;
64678;SDS011;51094;53.864;27.676;2022-07-18T07:35:15;0.30;;;0.30;;
64678;SDS011;51094;53.864;27.676;2022-07-18T07:37:53;0.30;;;0.30;;
64678;SDS011;51094;53.864;27.676;2022-07-18T07:40:24;0.30;;;0.30;;
64678;SDS011;51094;53.864;27.676;2022-07-18T07:42:55;0.30;;;0.30;;
64678;SDS011;51094;53.864;27.676;2022-07-18T07:45:31;0.30;;;0.28;;
64678;SDS011;51094;53.864;27.676;2022-07-18T07:47:58;0.30;;;0.30;;
64678;SDS011;51094;53.864;27.676;2022-07-18T07:50:25;0.80;;;0.80;;
64678;SDS011;51094;53.864;27.676;2022-07-18T07:52:51;0.90;;;0.90;;
64678;SDS011;51094;53.864;27.676;2022-07-18T07:55:18;0.30;;;0.30;;
64678;SDS011;51094;53.864;27.676;2022-07-18T07:57:45;0.30;;;0.30;;
64678;SDS011;51094;53.864;27.676;2022-07-18T08:00:11;0.30;;;0.30;;
64678;SDS011;51094;53.864;27.676;2022-07-18T08:02:49;0.20;;;0.20;;
64678;SDS011;51094;53.864;27.676;2022-07-18T08:05:25;0.20;;;0.20;;
64678;SDS011;51094;53.864;27.676;2022-07-18T08:07:53;0.30;;;0.30;;
64678;SDS011;51094;53.864;27.676;2022-07-18T08:10:20;0.28;;;0.28;;
64678;SDS011;51094;53.864;27.676;2022-07-18T08:12:47;0.20;;;0.20;;
64678;SDS011;51094;53.864;27.676;2022-07-18T08:15:14;0.60;;;0.60;;
64678;SDS011;51094;53.864;27.676;2022-07-18T08:17:40;0.30;;;0.30;;
64678;SDS011;51094;53.864;27.676;2022-07-18T08:20:13;0.30;;;0.30;;
64678;SDS011;51094;53.864;27.676;2022-07-18T08:23:02;0.30;;;0.30;;
64678;SDS011;51094;53.864;27.676;2022-07-18T08:25:29;0.30;;;0.30;;
64678;SDS011;51094;53.864;27.676;2022-07-18T08:27:57;0.30;;;0.30;;
64678;SDS011;51094;53.864;27.676;2022-07-18T08:30:25;0.20;;;0.20;;
64678;SDS011;51094;53.864;27.676;2022-07-18T08:32:53;0.20;;;0.20;;
64678;SDS011;51094;53.864;27.676;2022-07-18T08:35:20;0.30;;;0.30;;
64678;SDS011;51094;53.864;27.676;2022-07-18T08:37:48;0.30;;;0.30;;
64678;SDS011;51094;53.864;27.676;2022-07-18T08:40:15;0.30;;;0.30;;
64678;SDS011;51094;53.864;27.676;2022-07-18T08:42:42;0.20;;;0.20;;
64678;SDS011;51094;53.864;27.676;2022-07-18T08:45:29;0.25;;;0.25;;
64678;SDS011;51094;53.864;27.676;2022-07-18T08:47:57;0.30;;;0.30;;
64678;SDS011;51094;53.864;27.676;2022-07-18T08:50:23;0.30;;;0.30;;
64678;SDS011;51094;53.864;27.676;2022-07-18T08:52:50;0.20;;;0.20;;
64678;SDS011;51094;53.864;27.676;2022-07-18T08:57:52;0.30;;;0.30;;
64678;SDS011;51094;53.864;27.676;2022-07-18T09:00:19;0.22;;;0.22;;
64678;SDS011;51094;53.864;27.676;2022-07-18T09:02:57;0.20;;;0.20;;
64678;SDS011;51094;53.864;27.676;2022-07-18T09:05:26;0.20;;;0.20;;
64678;SDS011;51094;53.864;27.676;2022-07-18T09:08:15;0.20;;;0.20;;
64678;SDS011;51094;53.864;27.676;2022-07-18T09:10:50;0.30;;;0.30;;
64678;SDS011;51094;53.864;27.676;2022-07-18T09:13:22;0.20;;;0.20;;
64678;SDS011;51094;53.864;27.676;2022-07-18T09:15:59;0.20;;;0.20;;
64678;SDS011;51094;53.864;27.676;2022-07-18T09:18:36;0.30;;;0.30;;
64678;SDS011;51094;53.864;27.676;2022-07-18T09:21:06;0.20;;;0.20;;
64678;SDS011;51094;53.864;27.676;2022-07-18T09:23:39;0.30;;;0.22;;
64678;SDS011;51094;53.864;27.676;2022-07-18T09:26:08;0.20;;;0.20;;
64678;SDS011;51094;53.864;27.676;2022-07-18T09:28:52;0.30;;;0.30;;
64678;SDS011;51094;53.864;27.676;2022-07-18T09:31:40;0.25;;;0.25;;
64678;SDS011;51094;53.864;27.676;2022-07-18T09:34:14;0.20;;;0.20;;
64678;SDS011;51094;53.864;27.676;2022-07-18T09:37:02;0.20;;;0.20;;
64678;SDS011;51094;53.864;27.676;2022-07-18T09:39:29;0.25;;;0.25;;
64678;SDS011;51094;53.864;27.676;2022-07-18T09:42:12;0.30;;;0.30;;
64678;SDS011;51094;53.864;27.676;2022-07-18T09:44:55;0.43;;;0.43;;
64678;SDS011;51094;53.864;27.676;2022-07-18T09:47:24;0.70;;;0.70;;
64678;SDS011;51094;53.864;27.676;2022-07-18T09:49:51;0.20;;;0.20;;
64678;SDS011;51094;53.864;27.676;2022-07-18T09:52:18;0.30;;;0.30;;
64678;SDS011;51094;53.864;27.676;2022-07-18T09:54:45;0.30;;;0.30;;
64678;SDS011;51094;53.864;27.676;2022-07-18T09:57:25;0.30;;;0.30;;
64678;SDS011;51094;53.864;27.676;2022-07-18T09:59:53;0.20;;;0.20;;
64678;SDS011;51094;53.864;27.676;2022-07-18T10:02:21;0.50;;;0.50;;
64678;SDS011;51094;53.864;27.676;2022-07-18T10:04:48;0.30;;;0.30;;
64678;SDS011;51094;53.864;27.676;2022-07-18T10:07:15;0.30;;;0.30;;
64678;SDS011;51094;53.864;27.676;2022-07-18T10:09:42;0.40;;;0.40;;
64678;SDS011;51094;53.864;27.676;2022-07-18T10:12:12;0.43;;;0.43;;
64678;SDS011;51094;53.864;27.676;2022-07-18T10:17:07;0.60;;;0.60;;
64678;SDS011;51094;53.864;27.676;2022-07-18T10:19:36;0.85;;;0.85;;
64678;SDS011;51094;53.864;27.676;2022-07-18T10:22:03;0.90;;;0.90;;
64678;SDS011;51094;53.864;27.676;2022-07-18T10:24:32;0.60;;;0.60;;
64678;SDS011;51094;53.864;27.676;2022-07-18T10:27:19;0.30;;;0.30;;
64678;SDS011;51094;53.864;27.676;2022-07-18T10:32:39;0.25;;;0.25;;
64678;SDS011;51094;53.864;27.676;2022-07-18T10:35:07;0.40;;;0.40;;
64678;SDS011;51094;53.864;27.676;2022-07-18T10:37:37;0.40;;;0.40;;
64678;SDS011;51094;53.864;27.676;2022-07-18T10:40:23;0.30;;;0.30;;
64678;SDS011;51094;53.864;27.676;2022-07-18T10:46:08;0.30;;;0.30;;
64678;SDS011;51094;53.864;27.676;2022-07-18T10:51:12;0.43;;;0.43;;
64678;SDS011;51094;53.864;27.676;2022-07-18T10:59:01;0.40;;;0.40;;
64678;SDS011;51094;53.864;27.676;2022-07-18T11:01:52;0.40;;;0.40;;
64678;SDS011;51094;53.864;27.676;2022-07-18T11:04:33;0.40;;;0.40;;
64678;SDS011;51094;53.864;27.676;2022-07-18T11:09:41;0.40;;;0.40;;
64678;SDS011;51094;53.864;27.676;2022-07-18T11:14:59;0.70;;;0.70;;
64678;SDS011;51094;53.864;27.676;2022-07-18T11:20:39;0.50;;;0.50;;
64678;SDS011;51094;53.864;27.676;2022-07-18T11:25:48;0.40;;;0.40;;
64678;SDS011;51094;53.864;27.676;2022-07-18T11:28:24;0.40;;;0.40;;
64678;SDS011;51094;53.864;27.676;2022-07-18T11:30:58;0.60;;;0.60;;
64678;SDS011;51094;53.864;27.676;2022-07-18T11:33:28;0.57;;;0.57;;
64678;SDS011;51094;53.864;27.676;2022-07-18T11:36:06;0.60;;;0.60;;
64678;SDS011;51094;53.864;27.676;2022-07-18T11:38:34;0.50;;;0.50;;
64678;SDS011;51094;53.864;27.676;2022-07-18T11:41:12;0.52;;;0.52;;
64678;SDS011;51094;53.864;27.676;2022-07-18T11:43:39;0.50;;;0.50;;
64678;SDS011;51094;53.864;27.676;2022-07-18T11:46:07;0.68;;;0.68;;
64678;SDS011;51094;53.864;27.676;2022-07-18T11:48:43;0.50;;;0.50;;
64678;SDS011;51094;53.864;27.676;2022-07-18T11:51:12;0.80;;;0.80;;
64678;SDS011;51094;53.864;27.676;2022-07-18T11:53:51;0.68;;;0.68;;
64678;SDS011;51094;53.864;27.676;2022-07-18T11:56:20;0.70;;;0.70;;
64678;SDS011;51094;53.864;27.676;2022-07-18T11:58:49;0.60;;;0.60;;
64678;SDS011;51094;53.864;27.676;2022-07-18T12:01:16;0.90;;;0.90;;
64678;SDS011;51094;53.864;27.676;2022-07-18T12:03:45;0.50;;;0.50;;
64678;SDS011;51094;53.864;27.676;2022-07-18T12:06:13;0.30;;;0.30;;
64678;SDS011;51094;53.864;27.676;2022-07-18T12:08:43;0.40;;;0.40;;
64678;SDS011;51094;53.864;27.676;2022-07-18T12:11:16;0.45;;;0.45;;
64678;SDS011;51094;53.864;27.676;2022-07-18T12:13:48;0.55;;;0.55;;
64678;SDS011;51094;53.864;27.676;2022-07-18T12:16:47;0.50;;;0.50;;
64678;SDS011;51094;53.864;27.676;2022-07-18T12:19:32;0.50;;;0.50;;
64678;SDS011;51094;53.864;27.676;2022-07-18T12:27:07;0.52;;;0.52;;
64678;SDS011;51094;53.864;27.676;2022-07-18T12:32:36;0.60;;;0.60;;
64678;SDS011;51094;53.864;27.676;2022-07-18T12:35:23;0.52;;;0.52;;
64678;SDS011;51094;53.864;27.676;2022-07-18T12:40:51;0.50;;;0.50;;
64678;SDS011;51094;53.864;27.676;2022-07-18T12:45:56;0.60;;;0.60;;
64678;SDS011;51094;53.864;27.676;2022-07-18T12:48:24;0.50;;;0.50;;
64678;SDS011;51094;53.864;27.676;2022-07-18T12:51:10;0.50;;;0.50;;
64678;SDS011;51094;53.864;27.676;2022-07-18T12:53:38;0.50;;;0.50;;
64678;SDS011;51094;53.864;27.676;2022-07-18T12:56:11;0.57;;;0.57;;
64678;SDS011;51094;53.864;27.676;2022-07-18T12:58:38;0.90;;;0.90;;
64678;SDS011;51094;53.864;27.676;2022-07-18T13:01:04;0.57;;;0.57;;
64678;SDS011;51094;53.864;27.676;2022-07-18T13:03:33;0.55;;;0.55;;
64678;SDS011;51094;53.864;27.676;2022-07-18T13:06:01;0.50;;;0.50;;
64678;SDS011;51094;53.864;27.676;2022-07-18T13:08:28;0.50;;;0.50;;
64678;SDS011;51094;53.864;27.676;2022-07-18T13:10:55;0.60;;;0.60;;
64678;SDS011;51094;53.864;27.676;2022-07-18T13:13:24;0.50;;;0.50;;
64678;SDS011;51094;53.864;27.676;2022-07-18T13:15:51;0.60;;;0.60;;
64678;SDS011;51094;53.864;27.676;2022-07-18T13:18:18;0.52;;;0.52;;
64678;SDS011;51094;53.864;27.676;2022-07-18T13:20:45;0.50;;;0.50;;
64678;SDS011;51094;53.864;27.676;2022-07-18T13:23:11;0.70;;;0.70;;
64678;SDS011;51094;53.864;27.676;2022-07-18T13:25:40;0.63;;;0.63;;
64678;SDS011;51094;53.864;27.676;2022-07-18T13:28:07;0.70;;;0.70;;
64678;SDS011;51094;53.864;27.676;2022-07-18T13:30:33;0.57;;;0.57;;
64678;SDS011;51094;53.864;27.676;2022-07-18T13:33:00;0.77;;;0.77;;
64678;SDS011;51094;53.864;27.676;2022-07-18T13:35:27;0.68;;;0.68;;
64678;SDS011;51094;53.864;27.676;2022-07-18T13:37:54;0.60;;;0.60;;
64678;SDS011;51094;53.864;27.676;2022-07-18T13:40:21;0.77;;;0.77;;
64678;SDS011;51094;53.864;27.676;2022-07-18T13:42:53;0.90;;;0.90;;
64678;SDS011;51094;53.864;27.676;2022-07-18T13:45:20;1.00;;;1.00;;
64678;SDS011;51094;53.864;27.676;2022-07-18T13:47:47;0.60;;;0.60;;
64678;SDS011;51094;53.864;27.676;2022-07-18T13:50:13;0.70;;;0.70;;
64678;SDS011;51094;53.864;27.676;2022-07-18T13:52:41;0.70;;;0.70;;
64678;SDS011;51094;53.864;27.676;2022-07-18T13:55:09;0.80;;;0.80;;
64678;SDS011;51094;53.864;27.676;2022-07-18T13:57:36;0.50;;;0.50;;
64678;SDS011;51094;53.864;27.676;2022-07-18T14:00:05;0.50;;;0.50;;
64678;SDS011;51094;53.864;27.676;2022-07-18T14:02:34;0.50;;;0.50;;
64678;SDS011;51094;53.864;27.676;2022-07-18T14:05:01;0.60;;;0.60;;
64678;SDS011;51094;53.864;27.676;2022-07-18T14:07:39;0.50;;;0.50;;
64678;SDS011;51094;53.864;27.676;2022-07-18T14:10:06;0.70;;;0.70;;
64678;SDS011;51094;53.864;27.676;2022-07-18T14:12:33;0.50;;;0.50;;
64678;SDS011;51094;53.864;27.676;2022-07-18T14:15:00;0.47;;;0.47;;
64678;SDS011;51094;53.864;27.676;2022-07-18T14:17:27;0.57;;;0.57;;
64678;SDS011;51094;53.864;27.676;2022-07-18T14:19:55;0.80;;;0.80;;
64678;SDS011;51094;53.864;27.676;2022-07-18T14:22:22;0.50;;;0.50;;
64678;SDS011;51094;53.864;27.676;2022-07-18T14:24:49;0.70;;;0.70;;
64678;SDS011;51094;53.864;27.676;2022-07-18T14:27:15;0.60;;;0.60;;
64678;SDS011;51094;53.864;27.676;2022-07-18T14:29:49;0.63;;;0.63;;
64678;SDS011;51094;53.864;27.676;2022-07-18T14:32:16;0.57;;;0.57;;
64678;SDS011;51094;53.864;27.676;2022-07-18T14:34:42;0.50;;;0.50;;
64678;SDS011;51094;53.864;27.676;2022-07-18T14:37:09;0.70;;;0.70;;
64678;SDS011;51094;53.864;27.676;2022-07-18T14:39:36;1.00;;;1.00;;
64678;SDS011;51094;53.864;27.676;2022-07-18T14:42:02;0.93;;;0.93;;
64678;SDS011;51094;53.864;27.676;2022-07-18T14:44:29;0.73;;;0.73;;
64678;SDS011;51094;53.864;27.676;2022-07-18T14:46:56;0.60;;;0.60;;
64678;SDS011;51094;53.864;27.676;2022-07-18T14:49:23;0.70;;;0.70;;
64678;SDS011;51094;53.864;27.676;2022-07-18T14:51:50;0.70;;;0.70;;
64678;SDS011;51094;53.864;27.676;2022-07-18T14:54:21;0.60;;;0.60;;
64678;SDS011;51094;53.864;27.676;2022-07-18T14:56:48;0.65;;;0.65;;
64678;SDS011;51094;53.864;27.676;2022-07-18T14:59:15;0.50;;;0.50;;
64678;SDS011;51094;53.864;27.676;2022-07-18T15:01:42;0.50;;;0.50;;
64678;SDS011;51094;53.864;27.676;2022-07-18T15:04:08;0.63;;;0.63;;
64678;SDS011;51094;53.864;27.676;2022-07-18T15:06:42;0.43;;;0.43;;
64678;SDS011;51094;53.864;27.676;2022-07-18T15:09:09;0.60;;;0.60;;
64678;SDS011;51094;53.864;27.676;2022-07-18T15:11:36;0.80;;;0.80;;
64678;SDS011;51094;53.864;27.676;2022-07-18T15:14:02;0.50;;;0.50;;
64678;SDS011;51094;53.864;27.676;2022-07-18T15:16:30;0.57;;;0.57;;
64678;SDS011;51094;53.864;27.676;2022-07-18T15:18:57;0.60;;;0.60;;
64678;SDS011;51094;53.864;27.676;2022-07-18T15:21:24;0.70;;;0.70;;
64678;SDS011;51094;53.864;27.676;2022-07-18T15:23:51;0.68;;;0.68;;
64678;SDS011;51094;53.864;27.676;2022-07-18T15:26:18;0.85;;;0.85;;
64678;SDS011;51094;53.864;27.676;2022-07-18T15:28:44;0.70;;;0.70;;
64678;SDS011;51094;53.864;27.676;2022-07-18T15:31:11;0.70;;;0.70;;